createdAt,value
2017-07-21T00:01:36.314Z,5.50
2017-07-21T00:04:05.517Z,5.13
2017-07-21T00:06:34.777Z,6.23
2017-07-21T00:09:04.214Z,5.00
2017-07-21T00:11:33.446Z,5.13
2017-07-21T00:14:02.672Z,4.90
2017-07-21T00:16:31.911Z,5.00
2017-07-21T00:19:01.143Z,5.30
2017-07-21T00:21:30.410Z,5.23
2017-07-21T00:23:59.691Z,5.40
2017-07-21T00:26:28.975Z,4.87
2017-07-21T00:28:58.198Z,4.83
2017-07-21T00:31:27.432Z,4.93
2017-07-21T00:33:56.630Z,5.80
2017-07-21T00:36:25.895Z,5.50
2017-07-21T00:38:55.117Z,6.00
2017-07-21T00:41:25.082Z,5.23
2017-07-21T00:43:54.361Z,5.00
2017-07-21T00:46:23.567Z,5.53
2017-07-21T00:48:52.788Z,6.00
2017-07-21T00:51:22.039Z,5.77
2017-07-21T00:53:51.297Z,5.30
2017-07-21T00:56:21.131Z,5.57
2017-07-21T00:58:50.364Z,5.10
2017-07-21T01:01:20.238Z,5.33
2017-07-21T01:03:49.445Z,5.00
2017-07-21T01:06:18.651Z,5.87
2017-07-21T01:08:48.454Z,5.53
2017-07-21T01:11:18.114Z,5.10
2017-07-21T01:13:47.642Z,5.67
2017-07-21T01:16:16.910Z,5.00
2017-07-21T01:18:46.899Z,5.40
2017-07-21T01:21:16.158Z,5.70
2017-07-21T01:23:45.410Z,4.70
2017-07-21T01:26:14.991Z,4.90
2017-07-21T01:28:44.246Z,5.40
2017-07-21T01:31:13.536Z,5.53
2017-07-21T01:33:42.805Z,5.37
2017-07-21T01:36:12.045Z,5.50
2017-07-21T01:38:41.314Z,4.87
2017-07-21T01:41:10.903Z,5.40
2017-07-21T01:43:40.155Z,5.40
2017-07-21T01:46:09.437Z,5.13
2017-07-21T01:48:38.722Z,5.20
2017-07-21T01:51:07.983Z,5.17
2017-07-21T01:53:37.227Z,5.07
2017-07-21T01:56:07.729Z,5.70
2017-07-21T01:58:37.081Z,5.77
2017-07-21T02:01:06.366Z,5.33
2017-07-21T02:03:36.194Z,4.80
2017-07-21T02:06:05.414Z,4.93
2017-07-21T02:08:34.680Z,5.60
2017-07-21T02:11:04.859Z,5.30
2017-07-21T02:13:34.130Z,5.53
2017-07-21T02:16:03.371Z,5.30
2017-07-21T02:18:32.598Z,5.03
2017-07-21T02:21:02.624Z,5.40
2017-07-21T02:23:31.856Z,5.43
2017-07-21T02:26:02.179Z,5.57
2017-07-21T02:28:31.584Z,5.40
2017-07-21T02:31:01.392Z,5.30
2017-07-21T02:33:30.675Z,5.40
2017-07-21T02:35:59.917Z,5.50
2017-07-21T02:38:29.568Z,5.27
2017-07-21T02:40:59.232Z,5.70
2017-07-21T02:43:28.470Z,5.87
2017-07-21T02:45:58.202Z,5.93
2017-07-21T02:48:27.450Z,5.80
2017-07-21T02:50:57.792Z,6.00
2017-07-21T02:53:27.800Z,5.73
2017-07-21T02:55:57.426Z,4.80
2017-07-21T02:58:26.679Z,5.80
2017-07-21T03:00:55.914Z,5.90
2017-07-21T03:03:25.971Z,6.20
2017-07-21T03:05:55.231Z,5.50
2017-07-21T03:08:24.448Z,5.50
2017-07-21T03:10:54.342Z,5.10
2017-07-21T03:13:24.371Z,6.30
2017-07-21T03:15:53.614Z,5.27
2017-07-21T03:18:22.858Z,5.47
2017-07-21T03:20:52.875Z,5.60
2017-07-21T03:23:24.983Z,5.53
2017-07-21T03:25:54.229Z,5.60
2017-07-21T03:28:24.819Z,5.60
2017-07-21T03:30:54.262Z,5.70
2017-07-21T03:33:23.487Z,5.57
2017-07-21T03:35:52.769Z,5.70
2017-07-21T03:38:22.945Z,6.00
2017-07-21T03:40:52.184Z,5.60
2017-07-21T03:43:22.142Z,5.40
2017-07-21T03:45:51.378Z,5.37
2017-07-21T03:48:20.685Z,5.70
2017-07-21T03:50:49.886Z,5.20
2017-07-21T03:53:19.110Z,5.27
2017-07-21T03:55:48.325Z,5.83
2017-07-21T04:01:10.771Z,5.00
2017-07-21T04:03:40.014Z,5.33
2017-07-21T04:06:09.260Z,6.17
2017-07-21T04:08:39.978Z,5.03
2017-07-21T04:11:09.202Z,5.30
2017-07-21T04:13:38.450Z,5.60
2017-07-21T04:16:07.735Z,4.90
2017-07-21T04:18:36.982Z,5.77
2017-07-21T04:21:06.210Z,6.23
2017-07-21T04:23:36.050Z,6.17
2017-07-21T04:26:05.344Z,5.93
2017-07-21T04:28:34.586Z,6.10
2017-07-21T04:31:03.830Z,6.10
2017-07-21T04:33:33.135Z,6.20
2017-07-21T04:36:02.368Z,6.23
2017-07-21T04:38:31.961Z,6.07
2017-07-21T04:41:01.208Z,5.40
2017-07-21T04:43:30.437Z,5.57
2017-07-21T04:45:59.707Z,6.27
2017-07-21T04:48:29.002Z,6.93
2017-07-21T04:50:58.231Z,5.93
2017-07-21T04:53:27.438Z,6.20
2017-07-21T04:55:56.646Z,5.43
2017-07-21T04:58:25.903Z,6.53
2017-07-21T05:00:56.124Z,6.20
2017-07-21T05:03:26.194Z,8.77
2017-07-21T05:05:55.462Z,8.10
2017-07-21T05:08:24.714Z,9.50
2017-07-21T05:10:54.723Z,7.90
2017-07-21T05:13:23.962Z,7.40
2017-07-21T05:15:53.210Z,6.63
2017-07-21T05:18:22.491Z,6.90
2017-07-21T05:20:52.206Z,6.40
2017-07-21T05:23:21.442Z,6.50
2017-07-21T05:25:50.713Z,6.63
2017-07-21T05:28:20.310Z,7.03
2017-07-21T05:30:49.554Z,6.10
2017-07-21T05:33:18.773Z,5.97
2017-07-21T05:35:49.054Z,5.93
2017-07-21T05:38:18.313Z,6.07
2017-07-21T05:40:47.574Z,6.00
2017-07-21T05:43:16.810Z,6.77
2017-07-21T05:45:46.054Z,7.20
2017-07-21T05:48:15.302Z,7.07
2017-07-21T05:50:45.206Z,6.33
2017-07-21T05:53:14.577Z,6.10
2017-07-21T05:55:43.808Z,6.53
2017-07-21T05:58:13.038Z,6.33
2017-07-21T06:00:42.281Z,5.97
2017-07-21T06:03:13.279Z,6.10
2017-07-21T06:05:42.518Z,6.20
2017-07-21T06:08:11.731Z,6.73
2017-07-21T06:10:40.970Z,6.67
2017-07-21T06:13:10.267Z,6.67
2017-07-21T06:15:39.519Z,6.00
2017-07-21T06:18:09.533Z,6.57
2017-07-21T06:20:39.930Z,7.50
2017-07-21T06:23:09.307Z,6.60
2017-07-21T06:25:38.562Z,6.90
2017-07-21T06:28:07.830Z,6.47
2017-07-21T06:30:37.111Z,6.70
2017-07-21T06:33:06.370Z,6.70
2017-07-21T06:35:37.087Z,6.50
2017-07-21T06:38:08.628Z,6.50
2017-07-21T06:40:37.866Z,6.83
2017-07-21T06:43:07.157Z,7.07
2017-07-21T06:45:36.386Z,6.53
2017-07-21T06:48:05.613Z,6.10
2017-07-21T06:50:34.876Z,7.40
2017-07-21T06:53:04.137Z,6.30
2017-07-21T06:55:33.387Z,5.43
2017-07-21T06:58:02.665Z,6.23
2017-07-21T07:00:31.938Z,6.70
2017-07-21T07:03:01.162Z,6.80
2017-07-21T07:05:30.399Z,6.83
2017-07-21T07:07:59.639Z,7.07
2017-07-21T07:10:28.849Z,7.20
2017-07-21T07:12:58.098Z,8.20
2017-07-21T07:15:27.771Z,7.53
2017-07-21T07:17:57.004Z,8.53
2017-07-21T07:20:26.255Z,8.30
2017-07-21T07:22:55.522Z,8.40
2017-07-21T07:25:24.767Z,8.30
2017-07-21T07:27:54.705Z,7.90
2017-07-21T07:30:23.982Z,7.87
2017-07-21T07:32:53.218Z,8.07
2017-07-21T07:35:22.467Z,7.30
2017-07-21T07:37:51.679Z,7.50
2017-07-21T07:40:20.934Z,8.60
2017-07-21T07:42:51.578Z,6.60
2017-07-21T07:45:21.618Z,8.50
2017-07-21T07:47:51.530Z,8.27
2017-07-21T07:50:20.763Z,8.90
2017-07-21T07:52:49.992Z,8.73
2017-07-21T07:55:19.274Z,9.33
2017-07-21T07:57:48.538Z,9.63
2017-07-21T08:00:17.769Z,8.57
2017-07-21T08:02:47.018Z,7.83
2017-07-21T08:05:16.247Z,9.43
2017-07-21T08:07:45.490Z,9.00
2017-07-21T08:10:16.170Z,7.93
2017-07-21T08:12:45.391Z,8.53
2017-07-21T08:15:14.698Z,8.47
2017-07-21T08:17:43.972Z,8.73
2017-07-21T08:20:13.218Z,8.13
2017-07-21T08:22:42.468Z,8.20
2017-07-21T08:25:11.711Z,9.10
2017-07-21T08:27:40.988Z,8.03
2017-07-21T08:30:10.243Z,7.30
2017-07-21T08:32:39.501Z,8.63
2017-07-21T08:35:08.782Z,8.07
2017-07-21T08:37:38.104Z,8.43
2017-07-21T08:40:07.354Z,7.90
2017-07-21T08:42:36.635Z,7.30
2017-07-21T08:45:05.854Z,8.07
2017-07-21T08:47:35.094Z,7.40
2017-07-21T08:50:05.186Z,8.00
2017-07-21T08:52:34.439Z,7.40
2017-07-21T08:55:03.727Z,8.20
2017-07-21T09:37:07.518Z,9.00
2017-07-21T09:39:36.800Z,8.37
2017-07-21T09:42:06.061Z,8.33
2017-07-21T09:44:35.366Z,9.17
2017-07-21T09:47:04.643Z,9.52
2017-07-21T09:49:34.874Z,8.73
2017-07-21T09:52:04.122Z,9.23
2017-07-21T09:54:33.417Z,8.30
2017-07-21T09:57:02.678Z,7.93
2017-07-21T09:59:31.971Z,8.60
2017-07-21T10:02:01.233Z,8.60
2017-07-21T10:04:30.758Z,9.13
2017-07-21T10:07:00.285Z,9.57
2017-07-21T10:09:29.542Z,9.73
2017-07-21T10:11:59.445Z,10.40
2017-07-21T10:14:28.678Z,11.00
2017-07-21T10:16:57.899Z,10.53
2017-07-21T10:19:27.179Z,10.33
2017-07-21T10:21:56.436Z,11.33
2017-07-21T10:24:27.393Z,9.43
2017-07-21T10:26:56.766Z,11.30
2017-07-21T10:29:26.974Z,10.07
2017-07-21T10:31:56.275Z,11.43
2017-07-21T10:34:25.502Z,10.77
2017-07-21T10:36:56.654Z,9.63
2017-07-21T10:39:26.434Z,9.10
2017-07-21T10:41:55.660Z,10.07
2017-07-21T10:44:24.902Z,10.33
2017-07-21T10:46:54.150Z,10.80
2017-07-21T10:49:24.813Z,10.20
2017-07-21T10:51:54.407Z,10.67
2017-07-21T10:54:23.807Z,10.10
2017-07-21T10:56:53.450Z,9.07
2017-07-21T10:59:22.692Z,10.17
2017-07-21T11:01:52.559Z,9.27
2017-07-21T11:04:21.874Z,9.77
2017-07-21T11:06:51.128Z,9.37
2017-07-21T11:09:20.370Z,9.60
2017-07-21T11:11:49.588Z,10.07
2017-07-21T11:14:19.498Z,8.50
2017-07-21T11:16:48.743Z,9.50
2017-07-21T11:19:17.986Z,8.93
2017-07-21T11:21:47.238Z,10.03
2017-07-21T11:24:16.487Z,10.37
2017-07-21T11:26:46.083Z,10.10
2017-07-21T11:29:15.350Z,10.87
2017-07-21T11:31:44.587Z,11.10
2017-07-21T11:34:13.901Z,11.33
2017-07-21T11:36:43.145Z,11.50
2017-07-21T11:39:12.411Z,11.30
2017-07-21T11:41:41.703Z,11.33
2017-07-21T11:44:10.970Z,10.60
2017-07-21T11:46:40.217Z,11.80
2017-07-21T11:49:09.482Z,11.73
2017-07-21T11:51:38.698Z,12.90
2017-07-21T11:54:08.065Z,12.07
2017-07-21T11:56:37.318Z,13.40
2017-07-21T11:59:06.559Z,12.37
2017-07-21T12:01:36.318Z,12.73
2017-07-21T12:04:05.678Z,12.93
2017-07-21T12:06:35.140Z,12.37
2017-07-21T12:09:04.637Z,10.83
2017-07-21T12:11:33.891Z,18.30
2017-07-21T12:14:03.911Z,12.10
2017-07-21T12:16:33.174Z,10.13
2017-07-21T12:19:02.426Z,9.70
2017-07-21T12:21:31.778Z,10.73
2017-07-21T12:24:01.015Z,9.80
2017-07-21T12:26:30.531Z,10.60
2017-07-21T12:28:59.763Z,10.40
2017-07-21T12:31:29.034Z,9.60
2017-07-21T12:33:58.387Z,9.73
2017-07-21T12:36:28.133Z,8.97
2017-07-21T12:38:58.250Z,9.93
2017-07-21T12:41:27.666Z,10.10
2017-07-21T12:43:57.079Z,9.30
2017-07-21T12:46:27.108Z,8.80
2017-07-21T12:48:56.395Z,9.10
2017-07-21T12:51:26.023Z,8.10
2017-07-21T12:53:55.266Z,8.80
2017-07-21T12:56:24.810Z,9.10
2017-07-21T12:58:54.122Z,9.03
2017-07-21T13:01:23.442Z,8.77
2017-07-21T13:03:52.722Z,7.90
2017-07-21T13:06:21.963Z,9.37
2017-07-21T13:08:51.296Z,8.23
2017-07-21T13:11:20.661Z,9.10
2017-07-21T13:13:49.927Z,8.40
2017-07-21T13:16:19.180Z,8.00
2017-07-21T13:18:48.427Z,8.87
2017-07-21T13:21:17.686Z,8.30
2017-07-21T13:23:47.003Z,7.90
2017-07-21T13:26:16.659Z,7.90
2017-07-21T13:28:45.921Z,7.50
2017-07-21T13:31:15.191Z,7.37
2017-07-21T13:33:44.472Z,7.30
2017-07-21T13:36:13.706Z,7.13
2017-07-21T13:38:43.666Z,6.67
2017-07-21T13:41:13.110Z,6.83
2017-07-21T13:43:42.342Z,6.47
2017-07-21T13:46:11.598Z,6.90
2017-07-21T13:48:41.446Z,6.90
2017-07-21T13:51:10.668Z,6.03
2017-07-21T13:53:39.911Z,7.10
2017-07-21T13:56:09.486Z,7.10
2017-07-21T13:58:38.861Z,7.57
2017-07-21T14:01:08.927Z,7.87
2017-07-21T14:03:38.159Z,6.50
2017-07-21T14:06:07.746Z,6.70
2017-07-21T14:08:37.064Z,7.47
2017-07-21T14:11:06.290Z,7.43
2017-07-21T14:13:36.541Z,6.90
2017-07-21T14:16:05.756Z,7.07
2017-07-21T14:18:35.627Z,6.30
2017-07-21T14:21:04.884Z,6.13
2017-07-21T14:23:34.307Z,7.47
2017-07-21T14:26:04.002Z,6.33
2017-07-21T14:28:33.258Z,7.20
2017-07-21T14:31:02.491Z,6.33
2017-07-21T14:33:31.698Z,6.33
2017-07-21T14:36:00.948Z,6.60
2017-07-21T14:38:31.667Z,6.67
2017-07-21T14:41:01.071Z,5.60
2017-07-21T14:43:30.319Z,6.57
2017-07-21T14:45:59.543Z,6.40
2017-07-21T14:48:28.823Z,6.60
2017-07-21T14:50:58.143Z,7.60
2017-07-21T14:53:27.371Z,7.03
2017-07-21T14:55:56.599Z,6.50
2017-07-21T14:58:25.811Z,6.43
2017-07-21T15:00:55.406Z,7.00
2017-07-21T15:03:24.678Z,7.40
2017-07-21T15:05:53.926Z,6.83
2017-07-21T15:08:23.159Z,7.07
2017-07-21T15:10:52.402Z,7.30
2017-07-21T15:13:23.198Z,7.20
2017-07-21T15:15:52.451Z,7.07
2017-07-21T15:18:21.982Z,7.80
2017-07-21T15:20:51.229Z,7.60
2017-07-21T15:23:20.490Z,7.50
2017-07-21T15:25:50.291Z,7.60
2017-07-21T15:28:19.538Z,6.27
2017-07-21T15:30:48.792Z,6.53
2017-07-21T15:33:18.074Z,7.83
2017-07-21T15:35:47.330Z,7.07
2017-07-21T15:38:16.594Z,7.80
2017-07-21T15:40:45.892Z,8.10
2017-07-21T15:43:15.142Z,7.20
2017-07-21T15:45:44.357Z,8.30
2017-07-21T15:48:13.563Z,7.20
2017-07-21T15:50:42.820Z,7.00
2017-07-21T15:53:12.067Z,6.90
2017-07-21T15:55:41.339Z,7.50
2017-07-21T15:58:10.550Z,7.70
2017-07-21T16:00:40.721Z,7.90
2017-07-21T16:03:09.966Z,6.50
2017-07-21T16:05:39.202Z,7.90
2017-07-21T16:08:08.445Z,7.80
2017-07-21T16:10:37.750Z,7.50
2017-07-21T16:13:07.534Z,7.93
2017-07-21T16:15:36.778Z,7.30
2017-07-21T16:18:06.502Z,6.93
2017-07-21T16:20:36.815Z,8.43
2017-07-21T16:23:06.051Z,7.50
2017-07-21T16:25:36.598Z,7.47
2017-07-21T16:28:06.113Z,7.60
2017-07-21T16:30:35.355Z,7.97
2017-07-21T16:33:04.628Z,7.53
2017-07-21T16:35:33.884Z,8.60
2017-07-21T16:38:04.342Z,6.30
2017-07-21T16:40:33.582Z,6.93
2017-07-21T16:43:03.638Z,6.60
2017-07-21T16:45:32.889Z,6.40
2017-07-21T16:48:02.430Z,5.50
2017-07-21T16:50:32.621Z,6.87
2017-07-21T16:53:01.882Z,6.50
2017-07-21T16:55:31.107Z,6.50
2017-07-21T16:58:00.323Z,6.27
2017-07-21T17:00:30.434Z,6.03
2017-07-21T17:02:59.754Z,6.33
2017-07-21T17:05:29.043Z,7.53
2017-07-21T17:08:00.507Z,7.20
2017-07-21T17:10:29.728Z,7.10
2017-07-21T17:12:59.173Z,7.57
2017-07-21T17:15:28.469Z,7.70
2017-07-21T17:17:57.773Z,6.43
2017-07-21T17:20:27.050Z,6.40
2017-07-21T17:22:56.437Z,6.50
2017-07-21T17:25:25.713Z,6.23
2017-07-21T17:27:56.112Z,6.47
2017-07-21T17:30:25.338Z,6.23
2017-07-21T17:32:54.586Z,6.67
2017-07-21T17:35:23.808Z,7.03
2017-07-21T17:37:53.023Z,6.07
2017-07-21T17:40:23.026Z,7.30
2017-07-21T17:42:52.302Z,6.50
2017-07-21T17:45:21.560Z,7.20
2017-07-21T17:47:50.806Z,7.00
2017-07-21T17:50:20.038Z,7.20
2017-07-21T17:52:50.038Z,7.33
2017-07-21T17:55:19.429Z,6.70
2017-07-21T17:57:49.315Z,7.67
2017-07-21T18:00:18.592Z,7.00
2017-07-21T18:02:47.820Z,6.50
2017-07-21T18:05:17.065Z,6.47
2017-07-21T18:07:47.074Z,6.70
2017-07-21T18:10:16.694Z,6.50
2017-07-21T18:12:45.940Z,6.90
2017-07-21T18:15:15.217Z,7.20
2017-07-21T18:17:44.460Z,7.60
2017-07-21T18:20:13.930Z,7.67
2017-07-21T18:22:43.256Z,7.30
2017-07-21T18:25:12.830Z,6.90
2017-07-21T18:27:42.100Z,7.40
2017-07-21T18:30:11.378Z,6.97
2017-07-21T18:32:40.642Z,7.20
2017-07-21T18:35:10.009Z,7.53
2017-07-21T18:37:40.074Z,7.60
2017-07-21T18:40:09.311Z,6.43
2017-07-21T18:42:39.304Z,6.80
2017-07-21T18:45:08.634Z,7.20
2017-07-21T18:47:37.866Z,6.40
2017-07-21T18:50:07.246Z,6.83
2017-07-21T18:52:36.618Z,8.33
2017-07-21T18:55:06.184Z,7.80
2017-07-21T18:57:35.882Z,7.20
2017-07-21T19:00:05.519Z,7.90
2017-07-21T19:02:35.127Z,7.50
2017-07-21T19:05:05.527Z,7.43
2017-07-21T19:07:35.138Z,6.93
2017-07-21T19:10:04.658Z,6.77
2017-07-21T19:12:34.218Z,7.23
2017-07-21T19:15:03.526Z,7.87
2017-07-21T19:17:32.831Z,7.33
2017-07-21T19:20:02.491Z,7.57
2017-07-21T19:22:31.730Z,7.47
2017-07-21T19:25:01.262Z,7.60
2017-07-21T19:27:30.529Z,7.20
2017-07-21T19:30:00.959Z,8.20
2017-07-21T19:32:30.246Z,6.90
2017-07-21T19:34:59.718Z,6.97
2017-07-21T19:37:29.190Z,7.13
2017-07-21T19:39:58.466Z,7.67
2017-07-21T19:42:28.809Z,6.03
2017-07-21T19:44:58.118Z,6.10
2017-07-21T19:47:27.859Z,5.80
2017-07-21T19:49:57.098Z,6.30
2017-07-21T19:52:26.722Z,5.30
2017-07-21T19:54:55.987Z,5.40
2017-07-21T19:57:26.102Z,4.43
2017-07-21T19:59:55.327Z,4.80
2017-07-21T20:02:24.623Z,4.70
2017-07-21T20:04:53.937Z,4.50
2017-07-21T20:07:23.309Z,4.90
2017-07-21T20:09:52.879Z,4.50
2017-07-21T20:12:22.152Z,4.57
2017-07-21T20:14:51.525Z,5.30
2017-07-21T20:17:21.118Z,4.13
2017-07-21T20:19:51.117Z,3.83
2017-07-21T20:22:20.404Z,4.03
2017-07-21T20:24:50.315Z,5.07
2017-07-21T20:27:19.583Z,4.30
2017-07-21T20:29:48.881Z,3.83
2017-07-21T20:32:18.144Z,3.77
2017-07-21T20:34:47.379Z,4.20
2017-07-21T20:37:16.974Z,4.33
2017-07-21T20:39:46.270Z,4.10
2017-07-21T20:42:15.506Z,4.40
2017-07-21T20:44:45.026Z,4.37
2017-07-21T20:47:14.342Z,4.40
2017-07-21T20:49:43.616Z,4.03
2017-07-21T20:52:13.595Z,4.03
2017-07-21T20:54:42.923Z,5.00
2017-07-21T20:57:12.190Z,4.13
2017-07-21T20:59:41.435Z,4.40
2017-07-21T21:02:10.703Z,4.77
2017-07-21T21:04:39.956Z,4.47
2017-07-21T21:07:09.195Z,4.27
2017-07-21T21:09:38.449Z,4.20
2017-07-21T21:12:07.687Z,4.30
2017-07-21T21:14:36.906Z,4.33
2017-07-21T21:17:06.557Z,4.30
2017-07-21T21:19:35.830Z,4.03
2017-07-21T21:22:05.115Z,4.90
2017-07-21T21:24:34.427Z,4.80
2017-07-21T21:27:03.647Z,5.00
2017-07-21T21:29:32.966Z,4.97
2017-07-21T21:32:02.191Z,4.67
2017-07-21T21:34:31.450Z,4.03
2017-07-21T21:37:00.723Z,4.70
2017-07-21T21:39:29.971Z,5.00
2017-07-21T21:41:59.219Z,4.60
2017-07-21T21:44:28.448Z,4.57
2017-07-21T21:46:58.515Z,4.03
2017-07-21T21:49:28.280Z,4.40
2017-07-21T21:51:58.531Z,4.00
2017-07-21T21:54:27.755Z,3.70
2017-07-21T21:56:56.977Z,4.13
2017-07-21T21:59:26.198Z,4.60
2017-07-21T22:01:55.480Z,4.83
2017-07-21T22:04:24.727Z,4.30
2017-07-21T22:06:53.963Z,5.10
2017-07-21T22:09:23.238Z,4.73
2017-07-21T22:11:52.470Z,4.60
2017-07-21T22:14:21.725Z,4.70
2017-07-21T22:16:50.945Z,5.00
2017-07-21T22:19:20.392Z,6.07
2017-07-21T22:21:49.706Z,5.67
2017-07-21T22:24:18.922Z,5.40
2017-07-21T22:26:48.172Z,6.20
2017-07-21T22:29:17.428Z,6.00
2017-07-21T22:31:47.250Z,6.00
2017-07-21T22:34:16.522Z,6.53
2017-07-21T22:36:45.744Z,5.40
2017-07-21T22:39:15.016Z,5.67
2017-07-21T22:41:44.237Z,5.40
2017-07-21T22:44:13.487Z,5.57
2017-07-21T22:46:42.776Z,6.57
2017-07-21T22:49:12.800Z,5.67
2017-07-21T22:51:42.024Z,5.57
2017-07-21T22:54:12.031Z,6.70
2017-07-21T22:56:42.069Z,6.23
2017-07-21T22:59:12.074Z,6.47
2017-07-21T23:01:42.178Z,6.10
2017-07-21T23:04:11.423Z,6.47
2017-07-21T23:06:41.156Z,6.50
2017-07-21T23:09:10.415Z,6.53
2017-07-21T23:11:39.702Z,6.33
2017-07-21T23:14:08.942Z,6.87
2017-07-21T23:16:38.204Z,6.30
2017-07-21T23:19:07.447Z,6.43
2017-07-21T23:21:36.713Z,6.60
2017-07-21T23:24:05.984Z,6.10
2017-07-21T23:26:35.271Z,6.20
2017-07-21T23:29:04.622Z,6.33
2017-07-21T23:31:33.858Z,5.67
2017-07-21T23:34:03.103Z,6.37
2017-07-21T23:36:33.106Z,5.80
2017-07-21T23:39:02.910Z,6.47
2017-07-21T23:41:32.151Z,5.53
2017-07-21T23:44:01.414Z,5.50
2017-07-21T23:46:30.667Z,5.10
2017-07-21T23:48:59.902Z,4.47
2017-07-21T23:51:30.067Z,4.43
2017-07-21T23:53:59.281Z,4.70
2017-07-21T23:56:29.356Z,4.10
2017-07-21T23:58:59.367Z,5.23
